createdAt,value
2023-03-29T00:03:10.574Z,5.50
2023-03-29T00:09:03.881Z,5.50
2023-03-29T00:18:39.196Z,5.50
2023-03-29T00:27:35.240Z,5.40
2023-03-29T03:55:51.786Z,6.30
2023-03-29T03:58:24.362Z,6.30
2023-03-29T04:00:54.644Z,6.30
2023-03-29T04:03:34.163Z,6.30
2023-03-29T04:06:10.176Z,6.40
2023-03-29T04:09:54.471Z,6.30
2023-03-29T04:12:21.233Z,6.30
2023-03-29T04:14:58.135Z,6.40
2023-03-29T04:17:36.934Z,6.40
2023-03-29T04:20:10.883Z,6.40
2023-03-29T04:22:45.989Z,6.40
2023-03-29T04:25:22.376Z,6.40
2023-03-29T05:55:30.787Z,6.80
2023-03-29T05:58:01.065Z,6.80
2023-03-29T06:00:41.273Z,6.80
2023-03-29T06:03:22.329Z,6.80
2023-03-29T06:12:14.527Z,6.90
2023-03-29T06:14:44.407Z,7.00
2023-03-29T06:17:11.342Z,7.00
2023-03-29T06:19:45.330Z,7.10
2023-03-29T06:33:44.929Z,7.30
2023-03-29T06:36:53.542Z,7.40
2023-03-29T07:22:56.353Z,8.10
2023-03-29T07:25:30.704Z,8.20
2023-03-29T07:27:57.696Z,8.30
2023-03-29T07:30:41.657Z,8.30
2023-03-29T07:33:22.061Z,8.40
2023-03-29T07:36:05.140Z,8.50
2023-03-29T07:38:34.858Z,8.50
2023-03-29T07:41:11.170Z,8.60
2023-03-29T07:50:59.455Z,8.80
2023-03-29T07:53:26.236Z,8.80
2023-03-29T07:55:58.947Z,8.70
2023-03-29T07:58:25.564Z,8.70
2023-03-29T08:01:04.089Z,8.70
2023-03-29T08:03:31.224Z,8.70
2023-03-29T08:06:09.481Z,8.80
2023-03-29T08:08:45.611Z,8.80
2023-03-29T08:11:12.399Z,8.90
2023-03-29T08:13:39.538Z,8.90
2023-03-29T08:16:06.889Z,9.00
2023-03-29T08:18:51.606Z,9.00
2023-03-29T08:23:59.975Z,9.10
2023-03-29T08:26:42.549Z,9.20
2023-03-29T08:31:50.052Z,9.30
2023-03-29T08:43:43.748Z,9.50
2023-03-29T08:49:12.181Z,9.70
2023-03-29T09:02:23.880Z,9.90
2023-03-29T09:05:02.366Z,10.00
2023-03-29T09:07:41.162Z,10.10
2023-03-29T09:17:06.581Z,10.30
2023-03-29T09:20:00.938Z,10.40
2023-03-29T09:54:49.815Z,10.70
2023-03-29T09:57:35.562Z,10.80
2023-03-29T10:00:03.367Z,10.80
2023-03-29T10:02:45.457Z,10.90
2023-03-29T10:10:53.663Z,11.10
2023-03-29T10:16:06.416Z,11.00
2023-03-29T10:26:39.773Z,11.20
2023-03-29T10:29:07.802Z,11.20
2023-03-29T10:34:47.919Z,11.10
2023-03-29T10:37:23.842Z,11.00
2023-03-29T10:39:54.293Z,11.00
2023-03-29T10:44:56.981Z,11.20
2023-03-29T10:47:32.959Z,11.20
2023-03-29T10:49:59.609Z,11.30
2023-03-29T10:52:26.946Z,11.20
2023-03-29T10:54:56.070Z,11.10
2023-03-29T10:57:52.231Z,11.00
2023-03-29T11:03:33.492Z,10.90
2023-03-29T11:06:33.745Z,10.90
2023-03-29T11:09:21.093Z,10.90
2023-03-29T11:15:44.455Z,11.10
2023-03-29T11:21:36.716Z,11.40
2023-03-29T11:24:28.570Z,11.50
2023-03-29T11:27:22.582Z,11.50
2023-03-29T11:30:04.167Z,11.60
2023-03-29T11:33:21.761Z,11.60
2023-03-29T11:36:06.151Z,11.60
2023-03-29T11:38:46.706Z,11.70
2023-03-29T11:41:24.521Z,11.80
2023-03-29T11:44:17.822Z,11.70
2023-03-29T12:20:48.610Z,11.00
2023-03-29T12:23:33.042Z,11.00
2023-03-29T12:26:20.963Z,11.00
2023-03-29T12:32:47.122Z,11.10
2023-03-29T12:35:41.861Z,11.10
2023-03-29T12:38:30.924Z,11.20
2023-03-29T12:43:41.749Z,11.20
2023-03-29T12:46:11.209Z,11.20
2023-03-29T12:48:42.476Z,11.30
2023-03-29T12:51:20.647Z,11.40
2023-03-29T12:54:08.509Z,11.30
2023-03-29T12:56:45.633Z,11.30
2023-03-29T13:02:15.650Z,11.70
2023-03-29T13:04:58.799Z,11.80
2023-03-29T13:07:46.202Z,11.80
2023-03-29T13:10:37.569Z,11.90
2023-03-29T13:13:34.391Z,11.90
2023-03-29T13:16:21.680Z,11.90
2023-03-29T13:19:13.399Z,11.90
2023-03-29T13:22:34.153Z,12.10
2023-03-29T13:25:27.597Z,12.40
2023-03-29T13:28:05.419Z,12.40
2023-03-29T13:31:07.726Z,12.40
2023-03-29T13:37:24.226Z,12.50
2023-03-29T13:39:53.576Z,12.60
2023-03-29T13:42:41.400Z,12.80
2023-03-29T13:45:32.438Z,12.90
2023-03-29T13:48:24.595Z,13.00
2023-03-29T13:54:44.254Z,13.40
2023-03-29T13:57:39.813Z,13.50
2023-03-29T14:00:10.963Z,13.60
2023-03-29T14:03:07.558Z,13.50
2023-03-29T14:11:49.783Z,13.60
2023-03-29T14:14:28.473Z,13.60
2023-03-29T14:16:56.596Z,13.70
2023-03-29T14:19:37.993Z,13.80
2023-03-29T14:22:16.006Z,13.90
2023-03-29T14:24:55.451Z,14.00
2023-03-29T14:27:36.493Z,14.20
2023-03-29T14:33:06.369Z,14.30
2023-03-29T14:35:38.726Z,14.30
2023-03-29T14:38:06.069Z,14.30
2023-03-29T14:40:46.601Z,14.30
2023-03-29T14:43:30.521Z,14.40
2023-03-29T14:45:58.942Z,14.40
2023-03-29T14:48:32.394Z,14.40
2023-03-29T14:51:11.687Z,14.30
2023-03-29T14:53:39.463Z,14.30
2023-03-29T14:56:17.055Z,14.40
2023-03-29T15:01:28.569Z,14.40
2023-03-29T15:04:12.649Z,14.50
2023-03-29T15:12:21.395Z,14.40
2023-03-29T15:15:04.647Z,14.50
2023-03-29T15:17:52.268Z,14.50
2023-03-29T15:20:44.528Z,14.50
2023-03-29T15:23:17.639Z,14.50
2023-03-29T15:37:43.836Z,14.30
2023-03-29T15:40:30.615Z,14.30
2023-03-29T15:42:57.500Z,14.20
2023-03-29T15:45:28.870Z,14.20
2023-03-29T15:48:19.161Z,14.10
2023-03-29T15:51:04.554Z,14.10
2023-03-29T15:53:33.131Z,14.10
2023-03-29T15:56:25.117Z,14.10
2023-03-29T15:59:42.769Z,14.10
2023-03-29T16:26:31.082Z,14.00
2023-03-29T16:28:57.782Z,13.90
2023-03-29T16:31:33.994Z,13.90
2023-03-29T16:34:00.760Z,13.90
2023-03-29T16:36:36.023Z,13.80
2023-03-29T16:39:14.871Z,13.80
2023-03-29T16:41:56.006Z,13.70
2023-03-29T16:44:23.907Z,13.70
2023-03-29T16:46:54.436Z,13.70
2023-03-29T16:49:33.643Z,13.70
2023-03-29T16:52:00.802Z,13.70
2023-03-29T16:54:27.918Z,13.70
2023-03-29T16:57:30.744Z,13.70
2023-03-29T17:02:38.344Z,13.60
2023-03-29T17:05:17.860Z,13.60
2023-03-29T17:07:44.969Z,13.60
2023-03-29T17:10:12.853Z,13.60
2023-03-29T17:12:40.008Z,13.60
2023-03-29T17:18:01.479Z,13.60
2023-03-29T17:20:34.499Z,13.60
2023-03-29T17:23:01.267Z,13.60
2023-03-29T17:25:28.240Z,13.50
2023-03-29T17:27:56.429Z,13.50
2023-03-29T17:30:23.398Z,13.50
2023-03-29T17:32:50.435Z,13.50
2023-03-29T17:35:31.343Z,13.50
2023-03-29T17:37:58.336Z,13.50
2023-03-29T17:40:25.109Z,13.40
2023-03-29T17:42:51.758Z,13.40
2023-03-29T17:45:19.091Z,13.30
2023-03-29T17:47:45.941Z,13.30
2023-03-29T17:50:15.785Z,13.30
2023-03-29T17:52:42.449Z,13.20
2023-03-29T17:55:12.548Z,13.20
2023-03-29T17:57:43.289Z,13.20
2023-03-29T18:00:13.873Z,13.10
2023-03-29T18:02:41.890Z,13.10
2023-03-29T18:05:09.350Z,13.00
2023-03-29T18:07:36.789Z,13.00
2023-03-29T18:10:04.006Z,13.00
2023-03-29T18:12:34.461Z,12.90
2023-03-29T18:15:01.540Z,12.90
2023-03-29T18:17:28.310Z,12.90
2023-03-29T18:19:55.230Z,12.90
2023-03-29T18:22:22.112Z,12.80
2023-03-29T18:27:46.639Z,12.80
2023-03-29T18:30:17.766Z,12.80
2023-03-29T18:32:44.770Z,12.70
2023-03-29T18:35:12.797Z,12.70
2023-03-29T18:37:40.169Z,12.70
2023-03-29T19:48:34.662Z,12.50
2023-03-29T19:51:03.186Z,12.60
2023-03-29T19:53:31.558Z,12.50
2023-03-29T20:06:49.972Z,12.50
2023-03-29T20:09:21.233Z,12.50
2023-03-29T20:11:50.339Z,12.50
2023-03-29T20:14:17.143Z,12.50
2023-03-29T20:16:46.738Z,12.50
2023-03-29T20:19:18.525Z,12.50
2023-03-29T20:22:15.563Z,12.50
2023-03-29T20:24:42.555Z,12.50
2023-03-29T20:27:09.534Z,12.50
2023-03-29T20:29:36.473Z,12.60
2023-03-29T20:34:51.957Z,12.60
2023-03-29T20:37:22.401Z,12.60
2023-03-29T20:39:51.095Z,12.60
2023-03-29T20:42:18.491Z,12.60
2023-03-29T20:44:45.574Z,12.60
2023-03-29T20:47:15.835Z,12.60
2023-03-29T20:49:51.390Z,12.60
2023-03-29T20:58:08.523Z,12.70
2023-03-29T21:00:35.967Z,12.60
2023-03-29T21:03:42.132Z,12.60
2023-03-29T21:09:00.895Z,12.60
2023-03-29T21:17:43.577Z,12.50
2023-03-29T21:20:18.799Z,12.50
2023-03-29T21:23:09.933Z,12.50
2023-03-29T21:36:12.630Z,12.30
2023-03-29T21:41:40.551Z,12.20
2023-03-29T21:44:52.213Z,12.20
2023-03-29T21:50:52.874Z,12.10
2023-03-29T21:53:25.443Z,12.10
2023-03-29T21:56:05.003Z,12.20
2023-03-29T21:58:42.048Z,12.20
2023-03-29T22:01:26.156Z,12.20
2023-03-29T22:03:56.227Z,12.30
2023-03-29T22:06:32.542Z,12.30
2023-03-29T22:09:05.726Z,12.30
2023-03-29T22:11:32.657Z,12.40
2023-03-29T22:13:59.602Z,12.40
2023-03-29T22:16:26.758Z,12.40
2023-03-29T22:19:08.847Z,12.40
2023-03-29T22:21:41.765Z,12.50
2023-03-29T22:24:17.569Z,12.50
2023-03-29T22:27:00.405Z,12.50
2023-03-29T22:37:29.762Z,12.50
2023-03-29T22:40:02.147Z,12.50
2023-03-29T22:42:28.945Z,12.50
2023-03-29T22:45:05.739Z,12.50
2023-03-29T22:47:46.842Z,12.50
2023-03-29T22:50:25.065Z,12.40
2023-03-29T22:52:55.331Z,12.40
2023-03-29T22:55:24.531Z,12.40
2023-03-29T22:57:54.136Z,12.40
2023-03-29T23:00:56.874Z,12.30
2023-03-29T23:06:34.940Z,12.30
2023-03-29T23:16:07.165Z,12.30
2023-03-29T23:25:02.938Z,12.30
2023-03-29T23:27:29.742Z,12.30
2023-03-29T23:30:02.506Z,12.40
2023-03-29T23:32:38.344Z,12.40
2023-03-29T23:35:14.390Z,12.40
2023-03-29T23:37:55.907Z,12.40
2023-03-29T23:40:28.538Z,12.40
2023-03-29T23:43:10.696Z,12.40
2023-03-29T23:45:40.048Z,12.40
2023-03-29T23:48:09.429Z,12.40
2023-03-29T23:50:36.262Z,12.40
2023-03-29T23:53:06.720Z,12.40
2023-03-29T23:55:39.389Z,12.40
2023-03-29T23:58:06.179Z,12.50
